createdAt,value
2018-01-10T00:00:53.819Z,44.15
2018-01-10T00:01:53.811Z,44.54
2018-01-10T00:02:53.813Z,44.45
2018-01-10T00:03:53.814Z,44.54
2018-01-10T00:04:53.814Z,44.45
2018-01-10T00:05:53.816Z,44.45
2018-01-10T00:06:53.817Z,44.35
2018-01-10T00:07:53.818Z,44.35
2018-01-10T00:08:53.884Z,44.25
2018-01-10T00:09:53.824Z,44.54
2018-01-10T00:10:53.825Z,44.45
2018-01-10T00:11:53.826Z,44.15
2018-01-10T00:12:53.829Z,44.35
2018-01-10T00:13:53.832Z,44.45
2018-01-10T00:14:53.834Z,44.25
2018-01-10T00:15:53.836Z,44.15
2018-01-10T00:16:53.865Z,44.35
2018-01-10T00:17:53.840Z,44.54
2018-01-10T00:18:53.842Z,44.35
2018-01-10T00:19:53.844Z,44.35
2018-01-10T00:20:53.846Z,44.25
2018-01-10T00:21:53.848Z,44.54
2018-01-10T00:22:53.851Z,44.06
2018-01-10T00:23:53.853Z,44.45
2018-01-10T00:24:53.855Z,44.15
2018-01-10T00:25:53.858Z,44.54
2018-01-10T00:26:53.862Z,44.35
2018-01-10T00:27:53.862Z,44.35
2018-01-10T00:28:53.868Z,44.35
2018-01-10T00:29:53.865Z,44.35
2018-01-10T00:30:53.874Z,44.25
2018-01-10T00:31:53.870Z,44.35
2018-01-10T00:32:53.873Z,44.15
2018-01-10T00:33:53.875Z,44.45
2018-01-10T00:34:53.878Z,44.45
2018-01-10T00:35:53.879Z,44.15
2018-01-10T00:36:53.886Z,44.35
2018-01-10T00:37:53.884Z,44.35
2018-01-10T00:38:53.888Z,44.35
2018-01-10T00:39:53.888Z,44.35
2018-01-10T00:40:53.891Z,44.45
2018-01-10T00:41:53.925Z,44.35
2018-01-10T00:42:53.900Z,44.35
2018-01-10T00:43:53.900Z,44.54
2018-01-10T00:44:53.899Z,44.64
2018-01-10T00:45:53.902Z,44.35
2018-01-10T00:46:53.904Z,44.45
2018-01-10T00:47:53.906Z,44.45
2018-01-10T00:48:53.908Z,44.25
2018-01-10T00:49:53.911Z,44.35
2018-01-10T00:50:53.913Z,44.54
2018-01-10T00:51:53.914Z,44.54
2018-01-10T00:52:53.918Z,44.45
2018-01-10T00:53:53.919Z,44.54
2018-01-10T00:54:53.924Z,44.54
2018-01-10T00:55:53.923Z,44.45
2018-01-10T00:56:53.925Z,44.25
2018-01-10T00:57:53.927Z,44.35
2018-01-10T00:58:53.930Z,44.45
2018-01-10T00:59:53.935Z,44.54
2018-01-10T01:00:53.937Z,44.73
2018-01-10T01:01:53.935Z,44.73
2018-01-10T01:02:53.938Z,44.64
2018-01-10T01:03:53.939Z,44.54
2018-01-10T01:04:53.941Z,44.54
2018-01-10T01:05:53.944Z,44.45
2018-01-10T01:06:53.947Z,44.45
2018-01-10T01:07:53.949Z,44.54
2018-01-10T01:08:53.950Z,44.35
2018-01-10T01:09:53.952Z,44.45
2018-01-10T01:10:53.955Z,44.64
2018-01-10T01:11:53.956Z,44.64
2018-01-10T01:12:53.959Z,44.64
2018-01-10T01:13:53.961Z,44.45
2018-01-10T01:14:53.964Z,44.54
2018-01-10T01:15:53.965Z,44.93
2018-01-10T01:16:53.969Z,44.45
2018-01-10T01:17:53.970Z,44.93
2018-01-10T01:18:53.974Z,44.45
2018-01-10T01:19:53.974Z,44.83
2018-01-10T01:20:53.985Z,44.45
2018-01-10T01:21:53.978Z,44.45
2018-01-10T01:22:53.980Z,44.45
2018-01-10T01:23:53.982Z,44.45
2018-01-10T01:24:53.984Z,44.25
2018-01-10T01:25:53.987Z,44.64
2018-01-10T01:26:53.990Z,44.45
2018-01-10T01:27:53.991Z,44.54
2018-01-10T01:28:53.995Z,44.45
2018-01-10T01:29:53.996Z,44.54
2018-01-10T01:30:53.999Z,44.54
2018-01-10T01:31:53.999Z,44.54
2018-01-10T01:32:54.002Z,44.64
2018-01-10T01:33:54.004Z,44.64
2018-01-10T01:34:54.007Z,44.54
2018-01-10T01:35:54.008Z,44.45
2018-01-10T01:36:54.010Z,44.45
2018-01-10T01:37:54.013Z,44.54
2018-01-10T01:38:54.016Z,44.54
2018-01-10T01:39:54.016Z,44.54
2018-01-10T01:40:54.019Z,44.64
2018-01-10T01:41:54.021Z,44.45
2018-01-10T01:42:54.023Z,44.54
2018-01-10T01:43:54.026Z,44.54
2018-01-10T01:44:54.027Z,44.45
2018-01-10T01:45:54.029Z,44.54
2018-01-10T01:46:54.033Z,44.54
2018-01-10T01:47:54.034Z,44.54
2018-01-10T01:48:54.036Z,44.54
2018-01-10T01:49:54.038Z,44.64
2018-01-10T01:50:54.041Z,44.73
2018-01-10T01:51:54.043Z,44.73
2018-01-10T01:52:54.044Z,44.64
2018-01-10T01:53:54.048Z,44.64
2018-01-10T01:54:54.050Z,44.45
2018-01-10T01:55:54.051Z,44.73
2018-01-10T01:56:54.053Z,44.45
2018-01-10T01:57:54.055Z,44.54
2018-01-10T01:58:54.058Z,44.45
2018-01-10T01:59:54.059Z,44.45
2018-01-10T02:00:54.061Z,44.45
2018-01-10T02:01:54.069Z,44.45
2018-01-10T02:02:54.068Z,44.45
2018-01-10T02:03:54.069Z,44.45
2018-01-10T02:04:54.070Z,44.52
2018-01-10T02:05:54.072Z,44.35
2018-01-10T02:06:54.074Z,44.35
2018-01-10T02:07:54.076Z,44.54
2018-01-10T02:08:54.078Z,44.54
2018-01-10T02:09:54.080Z,44.45
2018-01-10T02:10:54.083Z,44.35
2018-01-10T02:11:54.084Z,44.54
2018-01-10T02:12:54.087Z,44.73
2018-01-10T02:13:54.088Z,44.52
2018-01-10T02:14:54.091Z,44.42
2018-01-10T02:15:54.093Z,44.62
2018-01-10T02:16:54.095Z,44.71
2018-01-10T02:17:54.098Z,44.54
2018-01-10T02:18:54.099Z,44.52
2018-01-10T02:19:54.101Z,44.32
2018-01-10T02:20:54.103Z,44.64
2018-01-10T02:21:54.105Z,44.54
2018-01-10T02:22:54.107Z,44.42
2018-01-10T02:23:54.109Z,44.62
2018-01-10T02:24:54.112Z,44.93
2018-01-10T02:25:54.127Z,44.52
2018-01-10T02:26:54.118Z,44.52
2018-01-10T02:27:54.118Z,44.54
2018-01-10T02:28:54.120Z,44.62
2018-01-10T02:29:54.122Z,44.52
2018-01-10T02:30:54.127Z,44.45
2018-01-10T02:31:54.128Z,44.64
2018-01-10T02:32:54.129Z,44.52
2018-01-10T02:33:54.136Z,44.52
2018-01-10T02:34:54.135Z,44.62
2018-01-10T02:35:54.134Z,44.73
2018-01-10T02:36:54.137Z,44.42
2018-01-10T02:37:54.139Z,44.52
2018-01-10T02:38:54.142Z,44.52
2018-01-10T02:39:54.143Z,44.52
2018-01-10T02:40:54.146Z,44.52
2018-01-10T02:41:54.149Z,44.52
2018-01-10T02:42:54.150Z,44.54
2018-01-10T02:43:54.154Z,44.32
2018-01-10T02:44:54.155Z,44.52
2018-01-10T02:45:54.156Z,44.42
2018-01-10T02:46:54.158Z,44.52
2018-01-10T02:47:54.160Z,44.52
2018-01-10T02:48:54.162Z,44.52
2018-01-10T02:49:54.164Z,44.62
2018-01-10T02:50:54.167Z,44.52
2018-01-10T02:51:54.168Z,44.32
2018-01-10T02:52:54.170Z,44.71
2018-01-10T02:53:54.173Z,44.62
2018-01-10T02:54:54.176Z,44.32
2018-01-10T02:55:54.178Z,44.42
2018-01-10T02:56:54.179Z,44.62
2018-01-10T02:57:54.184Z,44.52
2018-01-10T02:58:54.185Z,44.71
2018-01-10T02:59:54.186Z,44.42
2018-01-10T03:00:54.191Z,44.42
2018-01-10T03:01:54.190Z,44.42
2018-01-10T03:02:54.192Z,44.52
2018-01-10T03:03:54.192Z,44.52
2018-01-10T03:04:54.196Z,44.52
2018-01-10T03:05:54.198Z,44.42
2018-01-10T03:06:54.202Z,44.71
2018-01-10T03:07:54.202Z,44.54
2018-01-10T03:08:54.204Z,44.62
2018-01-10T03:09:54.206Z,44.32
2018-01-10T03:10:54.209Z,44.52
2018-01-10T03:11:54.212Z,44.52
2018-01-10T03:12:54.248Z,44.52
2018-01-10T03:13:54.215Z,44.52
2018-01-10T03:14:54.219Z,44.52
2018-01-10T03:15:54.219Z,44.32
2018-01-10T03:16:54.224Z,44.52
2018-01-10T03:17:54.223Z,44.42
2018-01-10T03:18:54.226Z,44.42
2018-01-10T03:19:54.228Z,44.42
2018-01-10T03:20:54.229Z,44.81
2018-01-10T03:21:54.233Z,44.42
2018-01-10T03:22:54.233Z,44.32
2018-01-10T03:23:54.236Z,44.62
2018-01-10T03:24:54.237Z,44.52
2018-01-10T03:25:54.239Z,44.32
2018-01-10T03:26:54.241Z,44.42
2018-01-10T03:27:54.243Z,44.42
2018-01-10T03:28:54.245Z,44.42
2018-01-10T03:29:54.248Z,44.52
2018-01-10T03:30:54.251Z,44.90
2018-01-10T03:31:54.251Z,44.62
2018-01-10T03:32:54.253Z,44.90
2018-01-10T03:33:54.255Z,44.52
2018-01-10T03:34:54.257Z,44.81
2018-01-10T03:35:54.259Z,44.81
2018-01-10T03:36:54.261Z,45.00
2018-01-10T03:37:54.268Z,44.42
2018-01-10T03:38:54.266Z,44.32
2018-01-10T03:39:54.267Z,44.62
2018-01-10T03:40:54.270Z,44.71
2018-01-10T03:41:54.271Z,44.62
2018-01-10T03:42:54.274Z,44.52
2018-01-10T03:43:54.276Z,44.81
2018-01-10T03:44:54.276Z,44.52
2018-01-10T03:45:54.280Z,44.52
2018-01-10T03:46:54.288Z,44.62
2018-01-10T03:47:54.290Z,44.52
2018-01-10T03:48:54.290Z,44.42
2018-01-10T03:49:54.292Z,44.52
2018-01-10T03:50:54.292Z,44.42
2018-01-10T03:51:54.293Z,44.62
2018-01-10T03:52:54.297Z,44.52
2018-01-10T03:53:54.296Z,44.42
2018-01-10T03:54:54.303Z,44.52
2018-01-10T03:55:54.300Z,44.52
2018-01-10T03:56:54.301Z,44.52
2018-01-10T03:57:54.304Z,44.71
2018-01-10T03:58:54.306Z,44.62
2018-01-10T03:59:54.308Z,45.00
2018-01-10T04:00:54.311Z,44.62
2018-01-10T04:01:54.312Z,44.52
2018-01-10T04:02:54.314Z,44.62
2018-01-10T04:03:54.315Z,44.52
2018-01-10T04:04:54.318Z,44.52
2018-01-10T04:05:54.320Z,44.62
2018-01-10T04:06:54.323Z,44.42
2018-01-10T04:07:54.324Z,44.90
2018-01-10T04:08:54.328Z,44.81
2018-01-10T04:09:54.327Z,44.42
2018-01-10T04:10:54.330Z,44.52
2018-01-10T04:11:54.332Z,44.52
2018-01-10T04:12:54.334Z,44.52
2018-01-10T04:13:54.334Z,44.52
2018-01-10T04:14:54.338Z,44.52
2018-01-10T04:15:54.339Z,44.52
2018-01-10T04:16:54.342Z,44.52
2018-01-10T04:17:54.344Z,44.13
2018-01-10T04:18:54.347Z,44.13
2018-01-10T04:19:54.347Z,44.52
2018-01-10T04:20:54.352Z,44.52
2018-01-10T04:21:54.355Z,44.32
2018-01-10T04:22:54.355Z,44.32
2018-01-10T04:23:54.356Z,44.04
2018-01-10T04:24:54.357Z,44.13
2018-01-10T04:25:54.361Z,44.42
2018-01-10T04:26:54.364Z,44.32
2018-01-10T04:27:54.364Z,44.13
2018-01-10T04:28:54.366Z,44.23
2018-01-10T04:29:54.369Z,44.32
2018-01-10T04:30:54.371Z,44.52
2018-01-10T04:31:54.380Z,44.62
2018-01-10T04:32:54.381Z,44.52
2018-01-10T04:33:54.378Z,44.62
2018-01-10T04:34:54.380Z,44.62
2018-01-10T04:35:54.380Z,44.81
2018-01-10T04:36:54.382Z,44.71
2018-01-10T04:37:54.385Z,44.71
2018-01-10T04:38:54.387Z,44.62
2018-01-10T04:39:54.390Z,44.42
2018-01-10T04:40:54.390Z,44.52
2018-01-10T04:41:54.402Z,44.52
2018-01-10T04:42:54.401Z,44.62
2018-01-10T04:43:54.397Z,44.42
2018-01-10T04:44:54.398Z,44.32
2018-01-10T04:45:54.400Z,44.62
2018-01-10T04:46:54.402Z,44.32
2018-01-10T04:47:54.404Z,44.62
2018-01-10T04:48:54.407Z,44.71
2018-01-10T04:49:54.408Z,44.42
2018-01-10T04:50:54.416Z,44.42
2018-01-10T04:51:54.413Z,44.62
2018-01-10T04:52:54.413Z,44.71
2018-01-10T04:53:54.416Z,44.62
2018-01-10T04:54:54.418Z,44.62
2018-01-10T04:55:54.419Z,44.52
2018-01-10T04:56:54.422Z,44.62
2018-01-10T04:57:54.424Z,45.00
2018-01-10T04:58:54.427Z,44.81
2018-01-10T04:59:54.428Z,45.00
2018-01-10T05:00:54.430Z,44.62
2018-01-10T05:01:54.433Z,44.81
2018-01-10T05:02:54.435Z,44.71
2018-01-10T05:03:54.438Z,45.00
2018-01-10T05:04:54.438Z,44.13
2018-01-10T05:05:54.440Z,43.85
2018-01-10T05:06:54.442Z,43.46
2018-01-10T05:07:54.443Z,43.75
2018-01-10T05:08:54.446Z,44.04
2018-01-10T05:09:54.448Z,43.65
2018-01-10T05:10:54.451Z,43.17
2018-01-10T05:11:54.451Z,43.00
2018-01-10T05:12:54.456Z,43.27
2018-01-10T05:13:54.458Z,42.97
2018-01-10T05:14:54.459Z,43.55
2018-01-10T05:15:54.460Z,43.75
2018-01-10T05:16:54.463Z,43.46
2018-01-10T05:17:54.468Z,43.58
2018-01-10T05:18:54.467Z,43.58
2018-01-10T05:19:54.469Z,43.58
2018-01-10T05:20:54.472Z,43.77
2018-01-10T05:21:54.474Z,43.19
2018-01-10T05:22:54.476Z,43.00
2018-01-10T05:23:54.477Z,43.77
2018-01-10T05:24:54.479Z,43.67
2018-01-10T05:25:54.482Z,43.58
2018-01-10T05:26:54.486Z,43.67
2018-01-10T05:27:54.486Z,43.65
2018-01-10T05:28:54.488Z,43.29
2018-01-10T05:29:54.492Z,43.38
2018-01-10T05:30:54.493Z,43.87
2018-01-10T05:31:54.495Z,43.38
2018-01-10T05:32:54.499Z,43.58
2018-01-10T05:33:54.499Z,44.15
2018-01-10T05:34:54.502Z,44.06
2018-01-10T05:35:54.503Z,43.96
2018-01-10T05:36:54.507Z,44.06
2018-01-10T05:37:54.508Z,44.06
2018-01-10T05:38:54.511Z,43.96
2018-01-10T05:39:54.514Z,44.15
2018-01-10T05:40:54.514Z,44.06
2018-01-10T05:41:54.576Z,44.06
2018-01-10T05:42:54.519Z,43.96
2018-01-10T05:43:54.520Z,44.54
2018-01-10T05:44:54.524Z,44.93
2018-01-10T05:45:54.526Z,44.83
2018-01-10T05:46:54.527Z,44.54
2018-01-10T05:47:54.530Z,44.64
2018-01-10T05:48:54.532Z,44.64
2018-01-10T05:49:54.533Z,44.73
2018-01-10T05:50:54.537Z,44.73
2018-01-10T05:51:54.537Z,44.83
2018-01-10T05:52:54.540Z,44.64
2018-01-10T05:53:54.543Z,44.93
2018-01-10T05:54:54.545Z,44.73
2018-01-10T05:55:54.547Z,44.83
2018-01-10T05:56:54.549Z,45.03
2018-01-10T05:57:54.554Z,44.83
2018-01-10T05:58:54.554Z,44.93
2018-01-10T05:59:54.557Z,44.54
2018-01-10T06:00:54.559Z,44.54
2018-01-10T06:01:54.617Z,45.03
2018-01-10T06:02:54.567Z,45.21
2018-01-10T06:03:54.564Z,45.03
2018-01-10T06:04:54.567Z,45.21
2018-01-10T06:05:54.569Z,45.51
2018-01-10T06:06:54.574Z,45.12
2018-01-10T06:07:54.583Z,45.03
2018-01-10T06:08:54.579Z,45.12
2018-01-10T06:09:54.577Z,45.12
2018-01-10T06:10:54.578Z,45.31
2018-01-10T06:11:54.586Z,45.03
2018-01-10T06:12:54.583Z,45.41
2018-01-10T06:13:54.586Z,45.03
2018-01-10T06:14:54.589Z,45.12
2018-01-10T06:15:54.590Z,45.31
2018-01-10T06:16:54.594Z,45.51
2018-01-10T06:17:54.595Z,45.41
2018-01-10T06:18:54.599Z,45.41
2018-01-10T06:19:54.599Z,45.41
2018-01-10T06:20:54.601Z,45.60
2018-01-10T06:21:54.605Z,45.60
2018-01-10T06:22:54.606Z,45.70
2018-01-10T06:23:54.609Z,45.60
2018-01-10T06:24:54.610Z,45.31
2018-01-10T06:25:54.612Z,45.41
2018-01-10T06:26:54.615Z,45.41
2018-01-10T06:27:54.618Z,45.21
2018-01-10T06:28:54.619Z,45.51
2018-01-10T06:29:54.621Z,45.70
2018-01-10T06:30:54.623Z,45.51
2018-01-10T06:31:54.626Z,46.18
2018-01-10T06:32:54.628Z,45.99
2018-01-10T06:33:54.630Z,45.60
2018-01-10T06:34:54.632Z,45.60
2018-01-10T06:35:54.683Z,45.51
2018-01-10T06:36:54.644Z,45.41
2018-01-10T06:37:54.642Z,45.51
2018-01-10T06:38:54.643Z,45.51
2018-01-10T06:39:54.643Z,45.60
2018-01-10T06:40:54.656Z,45.60
2018-01-10T06:41:54.648Z,45.51
2018-01-10T06:42:54.651Z,45.79
2018-01-10T06:43:54.652Z,46.08
2018-01-10T06:44:54.655Z,45.89
2018-01-10T06:45:54.657Z,45.70
2018-01-10T06:46:54.660Z,45.79
2018-01-10T06:47:54.662Z,45.70
2018-01-10T06:48:54.663Z,45.89
2018-01-10T06:49:54.666Z,45.99
2018-01-10T06:50:54.670Z,46.18
2018-01-10T06:51:54.670Z,45.99
2018-01-10T06:52:54.672Z,45.99
2018-01-10T06:53:54.673Z,45.99
2018-01-10T06:54:54.677Z,45.89
2018-01-10T06:55:54.679Z,46.08
2018-01-10T06:56:54.681Z,45.89
2018-01-10T06:57:54.683Z,46.08
2018-01-10T06:58:54.687Z,45.89
2018-01-10T06:59:54.688Z,46.18
2018-01-10T07:00:54.692Z,46.08
2018-01-10T07:01:54.693Z,46.28
2018-01-10T07:02:54.698Z,46.47
2018-01-10T07:03:54.698Z,46.47
2018-01-10T07:04:54.700Z,46.18
2018-01-10T07:05:54.702Z,46.37
2018-01-10T07:06:54.704Z,46.37
2018-01-10T07:07:54.706Z,46.37
2018-01-10T07:08:54.712Z,46.37
2018-01-10T07:09:54.711Z,45.99
2018-01-10T07:10:54.714Z,46.28
2018-01-10T07:11:54.716Z,46.08
2018-01-10T07:12:54.717Z,46.47
2018-01-10T07:13:54.719Z,46.47
2018-01-10T07:14:54.722Z,46.37
2018-01-10T07:15:54.724Z,46.76
2018-01-10T07:16:54.727Z,46.28
2018-01-10T07:17:54.731Z,46.28
2018-01-10T07:18:54.734Z,46.37
2018-01-10T07:19:54.733Z,46.28
2018-01-10T07:20:54.735Z,46.37
2018-01-10T07:21:54.738Z,46.56
2018-01-10T07:22:54.757Z,46.47
2018-01-10T07:23:54.741Z,46.28
2018-01-10T07:24:54.747Z,46.56
2018-01-10T07:25:54.746Z,46.28
2018-01-10T07:26:54.749Z,46.86
2018-01-10T07:27:54.751Z,46.37
2018-01-10T07:28:54.759Z,46.47
2018-01-10T07:29:54.756Z,46.66
2018-01-10T07:30:54.760Z,46.86
2018-01-10T07:31:54.761Z,46.66
2018-01-10T07:32:54.763Z,46.66
2018-01-10T07:33:54.764Z,46.37
2018-01-10T07:34:54.765Z,46.76
2018-01-10T07:35:54.769Z,46.56
2018-01-10T07:36:54.771Z,46.86
2018-01-10T07:37:54.774Z,46.56
2018-01-10T07:38:54.776Z,45.79
2018-01-10T07:39:54.779Z,44.54
2018-01-10T07:40:54.781Z,44.15
2018-01-10T07:41:54.782Z,43.67
2018-01-10T07:42:54.785Z,43.77
2018-01-10T07:43:54.786Z,43.87
2018-01-10T07:44:54.789Z,44.25
2018-01-10T07:45:54.790Z,45.21
2018-01-10T07:46:54.793Z,45.87
2018-01-10T07:47:54.792Z,46.28
2018-01-10T07:48:54.796Z,46.73
2018-01-10T07:49:54.804Z,46.83
2018-01-10T07:50:54.805Z,47.12
2018-01-10T07:51:54.805Z,47.22
2018-01-10T07:52:54.812Z,47.60
2018-01-10T07:53:54.804Z,47.60
2018-01-10T07:54:54.808Z,47.51
2018-01-10T07:55:54.806Z,47.70
2018-01-10T07:56:54.809Z,47.80
2018-01-10T07:57:54.810Z,47.41
2018-01-10T07:58:54.812Z,47.63
2018-01-10T07:59:54.812Z,47.24
2018-01-10T08:00:54.814Z,47.44
2018-01-10T08:01:54.817Z,47.53
2018-01-10T08:02:54.818Z,47.63
2018-01-10T08:03:54.823Z,47.72
2018-01-10T08:04:54.823Z,47.63
2018-01-10T08:05:54.825Z,47.63
2018-01-10T08:06:54.827Z,47.55
2018-01-10T08:07:54.832Z,47.53
2018-01-10T08:08:54.832Z,47.36
2018-01-10T08:09:54.833Z,47.17
2018-01-10T08:10:54.835Z,47.36
2018-01-10T08:11:54.838Z,47.65
2018-01-10T08:12:54.840Z,47.27
2018-01-10T08:13:54.843Z,47.36
2018-01-10T08:14:54.897Z,47.55
2018-01-10T08:15:54.845Z,47.17
2018-01-10T08:16:54.849Z,47.55
2018-01-10T08:17:54.850Z,47.75
2018-01-10T08:18:54.853Z,47.65
2018-01-10T08:19:54.854Z,47.45
2018-01-10T08:20:54.857Z,47.27
2018-01-10T08:21:54.862Z,47.17
2018-01-10T08:22:54.866Z,47.17
2018-01-10T08:23:54.864Z,47.45
2018-01-10T08:24:54.868Z,47.45
2018-01-10T08:25:54.868Z,46.97
2018-01-10T08:26:54.877Z,46.97
2018-01-10T08:27:54.873Z,47.07
2018-01-10T08:28:54.876Z,47.36
2018-01-10T08:29:54.884Z,47.07
2018-01-10T08:30:54.881Z,46.97
2018-01-10T08:31:54.882Z,47.17
2018-01-10T08:32:54.886Z,47.55
2018-01-10T08:33:54.891Z,47.07
2018-01-10T08:34:54.892Z,47.45
2018-01-10T08:35:54.895Z,47.07
2018-01-10T08:36:54.896Z,47.27
2018-01-10T08:37:54.899Z,47.17
2018-01-10T08:38:54.902Z,46.78
2018-01-10T08:39:54.905Z,46.59
2018-01-10T08:40:54.906Z,46.69
2018-01-10T08:41:54.912Z,46.49
2018-01-10T08:42:54.915Z,45.94
2018-01-10T08:43:54.914Z,46.20
2018-01-10T08:44:54.916Z,46.01
2018-01-10T08:45:54.919Z,46.20
2018-01-10T08:46:54.921Z,46.01
2018-01-10T08:47:54.924Z,46.20
2018-01-10T08:48:54.927Z,45.92
2018-01-10T08:49:54.929Z,46.01
2018-01-10T08:50:54.932Z,46.20
2018-01-10T08:51:54.935Z,46.20
2018-01-10T08:52:54.936Z,46.20
2018-01-10T08:53:54.938Z,45.92
2018-01-10T08:54:54.943Z,46.01
2018-01-10T08:55:54.943Z,45.92
2018-01-10T08:56:54.949Z,45.92
2018-01-10T08:57:54.950Z,46.11
2018-01-10T08:58:54.955Z,45.92
2018-01-10T08:59:54.956Z,46.01
2018-01-10T09:00:54.956Z,46.01
2018-01-10T09:01:54.958Z,45.92
2018-01-10T09:02:54.980Z,46.01
2018-01-10T09:03:54.963Z,45.92
2018-01-10T09:04:54.969Z,46.01
2018-01-10T09:05:54.969Z,46.01
2018-01-10T09:06:54.974Z,46.11
2018-01-10T09:07:54.974Z,46.01
2018-01-10T09:08:54.981Z,46.30
2018-01-10T09:09:54.984Z,46.49
2018-01-10T09:10:54.982Z,46.49
2018-01-10T09:11:54.984Z,46.59
2018-01-10T09:12:54.996Z,46.30
2018-01-10T09:13:54.989Z,46.49
2018-01-10T09:14:54.992Z,46.59
2018-01-10T09:15:54.995Z,46.30
2018-01-10T09:16:54.998Z,46.33
2018-01-10T09:17:55.002Z,46.69
2018-01-10T09:18:55.003Z,46.88
2018-01-10T09:19:55.005Z,46.97
2018-01-10T09:20:55.008Z,46.97
2018-01-10T09:21:55.010Z,46.59
2018-01-10T09:22:55.013Z,46.49
2018-01-10T09:23:55.019Z,46.49
2018-01-10T09:24:55.023Z,46.69
2018-01-10T09:25:55.024Z,46.71
2018-01-10T09:26:55.026Z,46.51
2018-01-10T09:27:55.024Z,46.61
2018-01-10T09:28:55.027Z,46.61
2018-01-10T09:29:55.031Z,46.61
2018-01-10T09:30:55.033Z,46.61
2018-01-10T09:31:55.035Z,46.69
2018-01-10T09:32:55.041Z,46.61
2018-01-10T09:33:55.040Z,46.81
2018-01-10T09:34:55.043Z,46.81
2018-01-10T09:35:55.046Z,46.90
2018-01-10T09:36:55.048Z,46.23
2018-01-10T09:37:55.051Z,46.42
2018-01-10T09:38:55.053Z,46.42
2018-01-10T09:39:55.056Z,46.42
2018-01-10T09:40:55.057Z,46.51
2018-01-10T09:41:55.108Z,46.51
2018-01-10T09:42:55.065Z,46.51
2018-01-10T09:43:55.065Z,46.51
2018-01-10T09:44:55.074Z,46.51
2018-01-10T09:45:55.077Z,46.13
2018-01-10T09:46:55.079Z,46.13
2018-01-10T09:47:55.079Z,45.94
2018-01-10T09:48:55.080Z,45.94
2018-01-10T09:49:55.081Z,46.13
2018-01-10T09:50:55.087Z,46.23
2018-01-10T09:51:55.087Z,46.23
2018-01-10T09:52:55.092Z,46.03
2018-01-10T09:53:55.101Z,45.94
2018-01-10T09:54:55.102Z,45.75
2018-01-10T09:55:55.101Z,45.17
2018-01-10T09:56:55.104Z,45.17
2018-01-10T09:57:55.106Z,45.26
2018-01-10T09:58:55.107Z,45.55
2018-01-10T09:59:55.112Z,45.26
2018-01-10T10:00:55.113Z,45.26
2018-01-10T10:01:55.118Z,45.55
2018-01-10T10:02:55.120Z,45.75
2018-01-10T10:03:55.123Z,45.45
2018-01-10T10:04:55.124Z,45.55
2018-01-10T10:05:55.160Z,45.55
2018-01-10T10:06:55.130Z,45.55
2018-01-10T10:07:55.132Z,45.75
2018-01-10T10:08:55.135Z,44.87
2018-01-10T10:09:55.139Z,44.01
2018-01-10T10:10:55.142Z,44.10
2018-01-10T10:11:55.143Z,44.20
2018-01-10T10:12:55.182Z,43.91
2018-01-10T10:13:55.148Z,44.01
2018-01-10T10:14:55.149Z,44.20
2018-01-10T10:15:55.150Z,43.91
2018-01-10T10:16:55.152Z,44.20
2018-01-10T10:17:55.154Z,43.91
2018-01-10T10:18:55.156Z,43.79
2018-01-10T10:19:55.158Z,42.66
2018-01-10T10:20:55.157Z,42.35
2018-01-10T10:21:55.158Z,42.15
2018-01-10T10:22:55.162Z,41.57
2018-01-10T10:23:55.163Z,41.48
2018-01-10T10:24:55.163Z,41.19
2018-01-10T10:25:55.165Z,40.78
2018-01-10T10:26:55.168Z,40.49
2018-01-10T10:27:55.165Z,40.88
2018-01-10T10:28:55.166Z,41.75
2018-01-10T10:29:55.166Z,41.94
2018-01-10T10:30:55.168Z,42.42
2018-01-10T10:31:55.166Z,42.42
2018-01-10T10:32:55.167Z,42.23
2018-01-10T10:33:55.168Z,42.23
2018-01-10T10:34:55.168Z,42.61
2018-01-10T10:35:55.167Z,42.71
2018-01-10T10:36:55.169Z,43.10
2018-01-10T10:37:55.175Z,43.10
2018-01-10T10:38:55.169Z,43.29
2018-01-10T10:39:55.169Z,43.00
2018-01-10T10:40:55.171Z,43.87
2018-01-10T10:41:55.192Z,43.48
2018-01-10T10:42:55.179Z,43.77
2018-01-10T10:43:55.171Z,43.67
2018-01-10T10:44:55.172Z,44.15
2018-01-10T10:45:55.176Z,43.94
2018-01-10T10:46:55.173Z,44.06
2018-01-10T10:47:55.173Z,44.15
2018-01-10T10:48:55.182Z,43.96
2018-01-10T10:49:55.174Z,44.15
2018-01-10T10:50:55.180Z,44.15
2018-01-10T10:51:55.178Z,43.77
2018-01-10T10:52:55.176Z,43.38
2018-01-10T10:53:55.180Z,43.58
2018-01-10T10:54:55.180Z,43.96
2018-01-10T10:55:55.186Z,44.06
2018-01-10T10:56:55.181Z,44.06
2018-01-10T10:57:55.183Z,44.04
2018-01-10T10:58:55.185Z,44.13
2018-01-10T10:59:55.184Z,44.42
2018-01-10T11:00:55.184Z,44.62
2018-01-10T11:01:55.187Z,44.42
2018-01-10T11:02:55.194Z,44.42
2018-01-10T11:03:55.187Z,45.10
2018-01-10T11:04:55.190Z,45.20
2018-01-10T11:05:55.188Z,45.10
2018-01-10T11:06:55.190Z,45.10
2018-01-10T11:07:55.189Z,45.39
2018-01-10T11:08:55.190Z,45.48
2018-01-10T11:09:55.191Z,45.20
2018-01-10T11:10:55.191Z,45.29
2018-01-10T11:11:55.190Z,45.58
2018-01-10T11:12:55.193Z,45.39
2018-01-10T11:13:55.208Z,45.48
2018-01-10T11:14:55.193Z,45.58
2018-01-10T11:15:55.191Z,45.48
2018-01-10T11:16:55.193Z,45.77
2018-01-10T11:17:55.194Z,45.48
2018-01-10T11:18:55.195Z,45.58
2018-01-10T11:19:55.194Z,45.97
2018-01-10T11:20:55.196Z,45.97
2018-01-10T11:21:55.214Z,46.45
2018-01-10T11:22:55.196Z,46.73
2018-01-10T11:23:55.196Z,46.64
2018-01-10T11:24:55.196Z,46.45
2018-01-10T11:25:55.198Z,46.64
2018-01-10T11:26:55.197Z,46.52
2018-01-10T11:27:55.204Z,46.64
2018-01-10T11:28:55.197Z,46.83
2018-01-10T11:29:55.198Z,46.55
2018-01-10T11:30:55.197Z,46.73
2018-01-10T11:31:55.198Z,46.73
2018-01-10T11:32:55.202Z,46.83
2018-01-10T11:33:55.199Z,46.64
2018-01-10T11:34:55.201Z,46.64
2018-01-10T11:35:55.211Z,46.64
2018-01-10T11:36:55.202Z,46.55
2018-01-10T11:37:55.211Z,46.64
2018-01-10T11:38:55.215Z,46.64
2018-01-10T11:39:55.205Z,46.73
2018-01-10T11:40:55.211Z,46.83
2018-01-10T11:41:55.212Z,47.22
2018-01-10T11:42:55.214Z,47.51
2018-01-10T11:43:55.206Z,47.51
2018-01-10T11:44:55.205Z,47.22
2018-01-10T11:45:55.209Z,47.22
2018-01-10T11:46:55.205Z,47.03
2018-01-10T11:47:55.207Z,47.41
2018-01-10T11:48:55.209Z,47.49
2018-01-10T11:49:55.207Z,47.70
2018-01-10T11:50:55.266Z,48.18
2018-01-10T11:51:55.208Z,47.89
2018-01-10T11:52:55.212Z,47.60
2018-01-10T11:53:55.219Z,47.51
2018-01-10T11:54:55.210Z,47.31
2018-01-10T11:55:55.219Z,47.41
2018-01-10T11:56:55.211Z,47.80
2018-01-10T11:57:55.212Z,47.70
2018-01-10T11:58:55.213Z,48.28
2018-01-10T11:59:55.213Z,47.80
2018-01-10T12:00:55.215Z,47.99
2018-01-10T12:01:55.217Z,48.08
2018-01-10T12:02:55.218Z,47.70
2018-01-10T12:03:55.218Z,47.70
2018-01-10T12:04:55.220Z,47.53
2018-01-10T12:05:55.223Z,47.44
2018-01-10T12:06:55.222Z,47.34
2018-01-10T12:07:55.224Z,47.60
2018-01-10T12:08:55.224Z,47.51
2018-01-10T12:09:55.227Z,47.53
2018-01-10T12:10:55.227Z,47.14
2018-01-10T12:11:55.228Z,46.95
2018-01-10T12:12:55.228Z,47.24
2018-01-10T12:13:55.231Z,47.24
2018-01-10T12:14:55.232Z,47.34
2018-01-10T12:15:55.233Z,47.03
2018-01-10T12:16:55.233Z,46.25
2018-01-10T12:17:55.235Z,45.77
2018-01-10T12:18:55.237Z,45.51
2018-01-10T12:19:55.240Z,44.73
2018-01-10T12:20:55.245Z,44.06
2018-01-10T12:21:55.281Z,44.06
2018-01-10T12:22:55.245Z,44.15
2018-01-10T12:23:55.248Z,44.93
2018-01-10T12:24:55.252Z,44.35
2018-01-10T12:25:55.252Z,45.03
2018-01-10T12:26:55.250Z,45.21
2018-01-10T12:27:55.264Z,45.03
2018-01-10T12:28:55.252Z,45.70
2018-01-10T12:29:55.255Z,45.60
2018-01-10T12:30:55.256Z,45.70
2018-01-10T12:31:55.259Z,45.31
2018-01-10T12:32:55.268Z,45.60
2018-01-10T12:33:55.265Z,45.60
2018-01-10T12:34:55.266Z,45.89
2018-01-10T12:35:55.268Z,45.99
2018-01-10T12:36:55.267Z,45.70
2018-01-10T12:37:55.280Z,45.89
2018-01-10T12:38:55.273Z,46.08
2018-01-10T12:39:55.277Z,46.40
2018-01-10T12:40:55.278Z,45.99
2018-01-10T12:41:55.280Z,46.40
2018-01-10T12:42:55.284Z,46.49
2018-01-10T12:43:55.289Z,46.56
2018-01-10T12:44:55.287Z,46.40
2018-01-10T12:45:55.289Z,46.30
2018-01-10T12:46:55.293Z,46.69
2018-01-10T12:47:55.293Z,46.69
2018-01-10T12:48:55.297Z,46.69
2018-01-10T12:49:55.298Z,46.69
2018-01-10T12:50:55.304Z,46.88
2018-01-10T12:51:55.305Z,46.40
2018-01-10T12:52:55.306Z,46.69